sensor_id;sensor_type;location;lat;lon;timestamp;pressure;altitude;pressure_sealevel;temperature;humidity
16777;BME280;8505;49.456;8.164;2023-05-20T00:01:38;100008.06;;;15.14;54.03
16777;BME280;8505;49.456;8.164;2023-05-20T00:04:06;100007.19;;;15.07;54.04
16777;BME280;8505;49.456;8.164;2023-05-20T00:06:34;100000.34;;;15.26;53.79
16777;BME280;8505;49.456;8.164;2023-05-20T00:09:03;100002.44;;;15.03;54.27
16777;BME280;8505;49.456;8.164;2023-05-20T00:11:31;100005.59;;;15.13;54.34
16777;BME280;8505;49.456;8.164;2023-05-20T00:13:59;100008.19;;;15.00;54.71
16777;BME280;8505;49.456;8.164;2023-05-20T00:16:27;100001.31;;;15.18;54.26
16777;BME280;8505;49.456;8.164;2023-05-20T00:18:55;99998.66;;;14.90;54.91
16777;BME280;8505;49.456;8.164;2023-05-20T00:21:23;99997.34;;;14.80;55.66
16777;BME280;8505;49.456;8.164;2023-05-20T00:23:51;99993.09;;;15.13;54.69
16777;BME280;8505;49.456;8.164;2023-05-20T00:26:20;99991.97;;;15.01;55.21
16777;BME280;8505;49.456;8.164;2023-05-20T00:28:48;99998.78;;;15.04;54.80
16777;BME280;8505;49.456;8.164;2023-05-20T00:31:16;100000.84;;;15.08;54.82
16777;BME280;8505;49.456;8.164;2023-05-20T00:33:43;100002.09;;;15.12;54.81
16777;BME280;8505;49.456;8.164;2023-05-20T00:36:11;99998.56;;;14.77;55.68
16777;BME280;8505;49.456;8.164;2023-05-20T00:38:39;99998.28;;;14.93;55.45
16777;BME280;8505;49.456;8.164;2023-05-20T00:41:07;99998.03;;;14.88;55.52
16777;BME280;8505;49.456;8.164;2023-05-20T00:43:36;100001.88;;;15.07;55.33
16777;BME280;8505;49.456;8.164;2023-05-20T00:46:04;99993.41;;;14.76;55.97
16777;BME280;8505;49.456;8.164;2023-05-20T00:48:38;99990.06;;;14.67;56.49
16777;BME280;8505;49.456;8.164;2023-05-20T00:51:06;99996.34;;;14.60;56.68
16777;BME280;8505;49.456;8.164;2023-05-20T00:53:34;99995.84;;;14.49;57.10
16777;BME280;8505;49.456;8.164;2023-05-20T00:56:04;100001.56;;;14.68;56.70
16777;BME280;8505;49.456;8.164;2023-05-20T00:58:32;99989.75;;;14.55;57.05
16777;BME280;8505;49.456;8.164;2023-05-20T01:01:03;99991.34;;;14.35;57.99
16777;BME280;8505;49.456;8.164;2023-05-20T01:03:32;99989.50;;;14.14;58.35
16777;BME280;8505;49.456;8.164;2023-05-20T01:06:00;99989.56;;;14.21;58.25
16777;BME280;8505;49.456;8.164;2023-05-20T01:08:28;99983.97;;;14.52;57.70
16777;BME280;8505;49.456;8.164;2023-05-20T01:11:02;99987.03;;;14.34;57.98
16777;BME280;8505;49.456;8.164;2023-05-20T01:13:33;99981.31;;;14.16;58.31
16777;BME280;8505;49.456;8.164;2023-05-20T01:16:06;99993.50;;;13.89;59.54
16777;BME280;8505;49.456;8.164;2023-05-20T01:18:36;99987.38;;;13.74;60.17
16777;BME280;8505;49.456;8.164;2023-05-20T01:21:07;99991.03;;;13.88;59.62
16777;BME280;8505;49.456;8.164;2023-05-20T01:23:39;99994.72;;;13.87;59.68
16777;BME280;8505;49.456;8.164;2023-05-20T01:26:08;99997.19;;;13.73;60.16
16777;BME280;8505;49.456;8.164;2023-05-20T01:28:40;99994.44;;;13.82;59.94
16777;BME280;8505;49.456;8.164;2023-05-20T01:31:13;99990.75;;;13.83;60.14
16777;BME280;8505;49.456;8.164;2023-05-20T01:33:42;99988.56;;;13.71;60.25
16777;BME280;8505;49.456;8.164;2023-05-20T01:36:11;99985.06;;;13.71;60.49
16777;BME280;8505;49.456;8.164;2023-05-20T01:38:41;99983.66;;;13.39;61.88
16777;BME280;8505;49.456;8.164;2023-05-20T01:41:10;99996.19;;;13.74;60.66
16777;BME280;8505;49.456;8.164;2023-05-20T01:43:38;99994.81;;;13.34;61.98
16777;BME280;8505;49.456;8.164;2023-05-20T01:46:07;99991.03;;;13.88;60.56
16777;BME280;8505;49.456;8.164;2023-05-20T01:48:35;99987.47;;;13.81;60.47
16777;BME280;8505;49.456;8.164;2023-05-20T01:51:03;99996.38;;;13.58;61.55
16777;BME280;8505;49.456;8.164;2023-05-20T01:53:31;99985.84;;;13.35;62.03
16777;BME280;8505;49.456;8.164;2023-05-20T01:56:00;99987.56;;;13.58;61.85
16777;BME280;8505;49.456;8.164;2023-05-20T01:58:28;99985.38;;;13.32;62.31
16777;BME280;8505;49.456;8.164;2023-05-20T02:00:56;99982.44;;;13.42;61.96
16777;BME280;8505;49.456;8.164;2023-05-20T02:03:24;99977.94;;;13.42;62.00
16777;BME280;8505;49.456;8.164;2023-05-20T02:05:52;99984.28;;;13.41;62.28
16777;BME280;8505;49.456;8.164;2023-05-20T02:08:20;99995.59;;;13.06;63.45
16777;BME280;8505;49.456;8.164;2023-05-20T02:10:48;99985.91;;;13.13;63.63
16777;BME280;8505;49.456;8.164;2023-05-20T02:13:17;99986.03;;;13.19;63.51
16777;BME280;8505;49.456;8.164;2023-05-20T02:15:44;99988.06;;;13.09;64.19
16777;BME280;8505;49.456;8.164;2023-05-20T02:18:12;99985.38;;;13.17;63.81
16777;BME280;8505;49.456;8.164;2023-05-20T02:20:44;99979.88;;;13.19;63.60
16777;BME280;8505;49.456;8.164;2023-05-20T02:23:12;99979.25;;;13.09;64.38
16777;BME280;8505;49.456;8.164;2023-05-20T02:25:40;99982.09;;;12.92;65.00
16777;BME280;8505;49.456;8.164;2023-05-20T02:28:08;99973.34;;;12.84;65.27
16777;BME280;8505;49.456;8.164;2023-05-20T02:30:38;99969.78;;;12.77;65.72
16777;BME280;8505;49.456;8.164;2023-05-20T02:33:06;99970.22;;;12.80;65.46
16777;BME280;8505;49.456;8.164;2023-05-20T02:35:35;99966.41;;;12.97;65.02
16777;BME280;8505;49.456;8.164;2023-05-20T02:38:03;99967.00;;;12.70;66.18
16777;BME280;8505;49.456;8.164;2023-05-20T02:40:31;99959.88;;;12.85;65.51
16777;BME280;8505;49.456;8.164;2023-05-20T02:42:59;99974.50;;;12.89;65.58
16777;BME280;8505;49.456;8.164;2023-05-20T02:45:27;99965.88;;;13.02;65.32
16777;BME280;8505;49.456;8.164;2023-05-20T02:47:57;99968.69;;;12.71;66.39
16777;BME280;8505;49.456;8.164;2023-05-20T02:50:25;99962.00;;;12.90;65.83
16777;BME280;8505;49.456;8.164;2023-05-20T02:52:52;99959.50;;;12.74;66.38
16777;BME280;8505;49.456;8.164;2023-05-20T02:55:20;99952.41;;;12.66;66.83
16777;BME280;8505;49.456;8.164;2023-05-20T02:57:49;99954.91;;;12.68;67.02
16777;BME280;8505;49.456;8.164;2023-05-20T03:00:17;99948.16;;;12.80;66.74
16777;BME280;8505;49.456;8.164;2023-05-20T03:02:45;99944.59;;;12.87;66.52
16777;BME280;8505;49.456;8.164;2023-05-20T03:05:14;99947.59;;;12.70;67.22
16777;BME280;8505;49.456;8.164;2023-05-20T03:07:42;99940.56;;;12.77;66.91
16777;BME280;8505;49.456;8.164;2023-05-20T03:10:11;99946.38;;;12.72;67.33
16777;BME280;8505;49.456;8.164;2023-05-20T03:12:40;99943.66;;;12.80;67.33
16777;BME280;8505;49.456;8.164;2023-05-20T03:15:09;99952.19;;;12.76;67.42
16777;BME280;8505;49.456;8.164;2023-05-20T03:17:37;99938.03;;;12.61;68.08
16777;BME280;8505;49.456;8.164;2023-05-20T03:20:08;99940.06;;;12.73;67.79
16777;BME280;8505;49.456;8.164;2023-05-20T03:22:39;99941.34;;;12.63;68.07
16777;BME280;8505;49.456;8.164;2023-05-20T03:25:08;99944.94;;;12.70;68.15
16777;BME280;8505;49.456;8.164;2023-05-20T03:27:36;99951.91;;;12.71;67.95
16777;BME280;8505;49.456;8.164;2023-05-20T03:30:05;99954.34;;;12.57;68.39
16777;BME280;8505;49.456;8.164;2023-05-20T03:32:32;99945.09;;;12.68;68.35
16777;BME280;8505;49.456;8.164;2023-05-20T03:35:00;99948.66;;;12.61;69.02
16777;BME280;8505;49.456;8.164;2023-05-20T03:37:28;99947.75;;;12.68;68.41
16777;BME280;8505;49.456;8.164;2023-05-20T03:39:57;99951.34;;;12.75;68.45
16777;BME280;8505;49.456;8.164;2023-05-20T03:42:25;99953.97;;;12.61;69.13
16777;BME280;8505;49.456;8.164;2023-05-20T03:44:53;99954.78;;;12.61;69.11
16777;BME280;8505;49.456;8.164;2023-05-20T03:47:21;99954.28;;;12.80;68.41
16777;BME280;8505;49.456;8.164;2023-05-20T03:49:48;99957.84;;;12.73;68.75
16777;BME280;8505;49.456;8.164;2023-05-20T03:52:16;99952.41;;;12.66;69.27
16777;BME280;8505;49.456;8.164;2023-05-20T03:54:44;99963.25;;;12.79;68.66
16777;BME280;8505;49.456;8.164;2023-05-20T03:57:13;99955.28;;;12.79;68.66
16777;BME280;8505;49.456;8.164;2023-05-20T03:59:41;99949.16;;;12.79;68.90
16777;BME280;8505;49.456;8.164;2023-05-20T04:02:09;99944.56;;;12.73;69.34
16777;BME280;8505;49.456;8.164;2023-05-20T04:04:37;99952.72;;;12.71;69.45
16777;BME280;8505;49.456;8.164;2023-05-20T04:07:08;99944.09;;;12.84;69.00
16777;BME280;8505;49.456;8.164;2023-05-20T04:09:37;99949.63;;;12.82;69.05
16777;BME280;8505;49.456;8.164;2023-05-20T04:12:05;99954.13;;;12.96;68.64
16777;BME280;8505;49.456;8.164;2023-05-20T04:14:34;99949.00;;;12.95;68.69
16777;BME280;8505;49.456;8.164;2023-05-20T04:17:02;99949.72;;;13.04;68.46
16777;BME280;8505;49.456;8.164;2023-05-20T04:19:31;99950.25;;;12.84;69.49
16777;BME280;8505;49.456;8.164;2023-05-20T04:21:59;99951.19;;;12.91;69.24
16777;BME280;8505;49.456;8.164;2023-05-20T04:24:27;99950.56;;;13.04;68.92
16777;BME280;8505;49.456;8.164;2023-05-20T04:26:55;99958.00;;;13.09;68.78
16777;BME280;8505;49.456;8.164;2023-05-20T04:29:23;99951.38;;;12.90;69.30
16777;BME280;8505;49.456;8.164;2023-05-20T04:31:52;99963.84;;;12.89;69.52
16777;BME280;8505;49.456;8.164;2023-05-20T04:34:20;99957.63;;;13.12;68.98
16777;BME280;8505;49.456;8.164;2023-05-20T04:36:52;99957.88;;;13.25;68.14
16777;BME280;8505;49.456;8.164;2023-05-20T04:39:20;99950.50;;;13.27;68.53
16777;BME280;8505;49.456;8.164;2023-05-20T04:41:48;99943.91;;;13.08;68.98
16777;BME280;8505;49.456;8.164;2023-05-20T04:44:16;99949.13;;;13.16;68.99
16777;BME280;8505;49.456;8.164;2023-05-20T04:46:44;99949.97;;;13.31;68.55
16777;BME280;8505;49.456;8.164;2023-05-20T04:49:13;99946.56;;;13.23;68.92
16777;BME280;8505;49.456;8.164;2023-05-20T04:51:41;99944.38;;;13.41;68.57
16777;BME280;8505;49.456;8.164;2023-05-20T04:54:09;99945.66;;;13.45;68.45
16777;BME280;8505;49.456;8.164;2023-05-20T04:56:36;99936.13;;;13.36;68.82
16777;BME280;8505;49.456;8.164;2023-05-20T04:59:05;99936.13;;;13.51;68.51
16777;BME280;8505;49.456;8.164;2023-05-20T05:01:35;99938.59;;;13.23;69.31
16777;BME280;8505;49.456;8.164;2023-05-20T05:04:03;99938.47;;;13.46;68.56
16777;BME280;8505;49.456;8.164;2023-05-20T05:06:32;99937.88;;;13.44;68.91
16777;BME280;8505;49.456;8.164;2023-05-20T05:09:00;99936.63;;;13.75;67.81
16777;BME280;8505;49.456;8.164;2023-05-20T05:11:27;99934.06;;;13.53;68.58
16777;BME280;8505;49.456;8.164;2023-05-20T05:13:55;99934.50;;;13.20;70.32
16777;BME280;8505;49.456;8.164;2023-05-20T05:16:23;99933.00;;;13.47;68.64
16777;BME280;8505;49.456;8.164;2023-05-20T05:18:51;99934.41;;;13.64;68.79
16777;BME280;8505;49.456;8.164;2023-05-20T05:21:18;99923.44;;;13.53;68.93
16777;BME280;8505;49.456;8.164;2023-05-20T05:23:48;99924.75;;;13.78;68.54
16777;BME280;8505;49.456;8.164;2023-05-20T05:26:15;99927.97;;;13.88;67.82
16777;BME280;8505;49.456;8.164;2023-05-20T05:28:43;99919.09;;;13.66;68.54
16777;BME280;8505;49.456;8.164;2023-05-20T05:31:11;99915.34;;;13.61;68.87
16777;BME280;8505;49.456;8.164;2023-05-20T05:33:39;99917.88;;;13.84;68.00
16777;BME280;8505;49.456;8.164;2023-05-20T05:36:07;99901.06;;;13.83;68.62
16777;BME280;8505;49.456;8.164;2023-05-20T05:38:34;99916.63;;;13.65;69.21
16777;BME280;8505;49.456;8.164;2023-05-20T05:41:03;99908.09;;;13.69;69.12
16777;BME280;8505;49.456;8.164;2023-05-20T05:43:31;99908.63;;;13.65;69.01
16777;BME280;8505;49.456;8.164;2023-05-20T05:45:59;99908.19;;;13.76;69.00
16777;BME280;8505;49.456;8.164;2023-05-20T05:48:27;99901.53;;;13.87;68.77
16777;BME280;8505;49.456;8.164;2023-05-20T05:50:55;99909.34;;;13.88;68.99
16777;BME280;8505;49.456;8.164;2023-05-20T05:53:23;99893.53;;;13.87;68.85
16777;BME280;8505;49.456;8.164;2023-05-20T05:55:51;99896.47;;;13.92;68.84
16777;BME280;8505;49.456;8.164;2023-05-20T05:58:20;99897.09;;;14.15;68.22
16777;BME280;8505;49.456;8.164;2023-05-20T06:00:50;99899.75;;;14.15;67.94
16777;BME280;8505;49.456;8.164;2023-05-20T06:03:18;99896.28;;;14.36;67.85
16777;BME280;8505;49.456;8.164;2023-05-20T06:05:46;99905.63;;;14.25;67.59
16777;BME280;8505;49.456;8.164;2023-05-20T06:08:14;99906.75;;;14.16;68.26
16777;BME280;8505;49.456;8.164;2023-05-20T06:10:46;99902.78;;;13.91;69.58
16777;BME280;8505;49.456;8.164;2023-05-20T06:13:14;99906.75;;;13.95;69.12
16777;BME280;8505;49.456;8.164;2023-05-20T06:15:43;99901.13;;;14.26;68.30
16777;BME280;8505;49.456;8.164;2023-05-20T06:18:11;99897.84;;;14.51;67.55
16777;BME280;8505;49.456;8.164;2023-05-20T06:20:39;99898.47;;;14.32;68.38
16777;BME280;8505;49.456;8.164;2023-05-20T06:23:07;99896.13;;;14.65;67.27
16777;BME280;8505;49.456;8.164;2023-05-20T06:25:35;99898.94;;;14.57;67.22
16777;BME280;8505;49.456;8.164;2023-05-20T06:28:03;99897.19;;;14.43;68.27
16777;BME280;8505;49.456;8.164;2023-05-20T06:30:31;99901.22;;;14.60;67.80
16777;BME280;8505;49.456;8.164;2023-05-20T06:33:00;99889.44;;;14.76;67.20
16777;BME280;8505;49.456;8.164;2023-05-20T06:35:28;99898.19;;;14.70;67.37
16777;BME280;8505;49.456;8.164;2023-05-20T06:37:56;99890.78;;;14.93;66.99
16777;BME280;8505;49.456;8.164;2023-05-20T06:40:24;99886.91;;;14.95;66.85
16777;BME280;8505;49.456;8.164;2023-05-20T06:42:52;99895.16;;;15.07;66.46
16777;BME280;8505;49.456;8.164;2023-05-20T06:45:21;99893.38;;;14.80;67.45
16777;BME280;8505;49.456;8.164;2023-05-20T06:47:48;99893.50;;;14.72;68.10
16777;BME280;8505;49.456;8.164;2023-05-20T06:50:18;99889.41;;;15.04;66.77
16777;BME280;8505;49.456;8.164;2023-05-20T06:52:46;99885.84;;;14.90;67.64
16777;BME280;8505;49.456;8.164;2023-05-20T06:55:14;99883.16;;;14.90;67.02
16777;BME280;8505;49.456;8.164;2023-05-20T06:57:42;99887.09;;;14.94;67.28
16777;BME280;8505;49.456;8.164;2023-05-20T07:00:11;99882.53;;;15.22;66.65
16777;BME280;8505;49.456;8.164;2023-05-20T07:02:40;99879.47;;;15.25;65.84
16777;BME280;8505;49.456;8.164;2023-05-20T07:05:09;99881.00;;;15.07;67.08
16777;BME280;8505;49.456;8.164;2023-05-20T07:07:38;99879.75;;;15.44;66.00
16777;BME280;8505;49.456;8.164;2023-05-20T07:10:07;99872.16;;;15.41;66.17
16777;BME280;8505;49.456;8.164;2023-05-20T07:12:35;99870.03;;;15.70;64.93
16777;BME280;8505;49.456;8.164;2023-05-20T07:15:03;99866.13;;;15.66;64.85
16777;BME280;8505;49.456;8.164;2023-05-20T07:17:31;99876.19;;;15.71;64.79
16777;BME280;8505;49.456;8.164;2023-05-20T07:19:59;99881.63;;;15.50;65.54
16777;BME280;8505;49.456;8.164;2023-05-20T07:22:27;99874.19;;;15.80;64.55
16777;BME280;8505;49.456;8.164;2023-05-20T07:24:56;99867.13;;;15.59;65.74
16777;BME280;8505;49.456;8.164;2023-05-20T07:27:24;99858.69;;;15.62;65.19
16777;BME280;8505;49.456;8.164;2023-05-20T07:29:52;99863.66;;;15.65;65.19
16777;BME280;8505;49.456;8.164;2023-05-20T07:32:20;99861.69;;;15.46;66.02
16777;BME280;8505;49.456;8.164;2023-05-20T07:34:48;99857.50;;;15.71;65.96
16777;BME280;8505;49.456;8.164;2023-05-20T07:37:16;99858.72;;;15.55;66.12
16777;BME280;8505;49.456;8.164;2023-05-20T07:39:44;99865.59;;;15.36;67.36
16777;BME280;8505;49.456;8.164;2023-05-20T07:42:13;99857.69;;;15.69;66.22
16777;BME280;8505;49.456;8.164;2023-05-20T07:44:41;99861.06;;;15.91;65.46
16777;BME280;8505;49.456;8.164;2023-05-20T07:47:09;99855.22;;;15.68;66.23
16777;BME280;8505;49.456;8.164;2023-05-20T07:49:36;99852.00;;;15.79;65.73
16777;BME280;8505;49.456;8.164;2023-05-20T07:52:05;99844.22;;;15.97;65.84
16777;BME280;8505;49.456;8.164;2023-05-20T07:54:33;99844.81;;;15.80;65.79
16777;BME280;8505;49.456;8.164;2023-05-20T07:57:02;99850.34;;;15.85;65.33
16777;BME280;8505;49.456;8.164;2023-05-20T07:59:31;99841.78;;;16.29;64.14
16777;BME280;8505;49.456;8.164;2023-05-20T08:01:59;99842.78;;;16.61;63.18
16777;BME280;8505;49.456;8.164;2023-05-20T08:04:27;99847.91;;;16.88;62.74
16777;BME280;8505;49.456;8.164;2023-05-20T08:06:55;99845.47;;;16.28;64.36
16777;BME280;8505;49.456;8.164;2023-05-20T08:09:22;99836.84;;;16.65;63.61
16777;BME280;8505;49.456;8.164;2023-05-20T08:11:50;99845.06;;;16.64;62.87
16777;BME280;8505;49.456;8.164;2023-05-20T08:14:18;99841.16;;;16.60;62.74
16777;BME280;8505;49.456;8.164;2023-05-20T08:16:47;99844.63;;;16.34;63.78
16777;BME280;8505;49.456;8.164;2023-05-20T08:19:19;99837.44;;;16.67;63.07
16777;BME280;8505;49.456;8.164;2023-05-20T08:21:47;99838.84;;;16.89;62.83
16777;BME280;8505;49.456;8.164;2023-05-20T08:24:14;99826.66;;;17.51;60.41
16777;BME280;8505;49.456;8.164;2023-05-20T08:26:42;99832.94;;;17.25;61.18
16777;BME280;8505;49.456;8.164;2023-05-20T08:29:10;99835.91;;;17.55;60.17
16777;BME280;8505;49.456;8.164;2023-05-20T08:31:38;99837.63;;;18.12;58.32
16777;BME280;8505;49.456;8.164;2023-05-20T08:34:07;99834.09;;;17.87;59.58
16777;BME280;8505;49.456;8.164;2023-05-20T08:36:35;99829.47;;;18.01;59.01
16777;BME280;8505;49.456;8.164;2023-05-20T08:39:03;99830.34;;;17.95;59.12
16777;BME280;8505;49.456;8.164;2023-05-20T08:41:30;99834.16;;;18.62;57.41
16777;BME280;8505;49.456;8.164;2023-05-20T08:43:59;99838.00;;;18.41;57.72
16777;BME280;8505;49.456;8.164;2023-05-20T08:46:27;99838.84;;;18.66;56.25
16777;BME280;8505;49.456;8.164;2023-05-20T08:48:57;99839.56;;;18.55;57.64
16777;BME280;8505;49.456;8.164;2023-05-20T08:51:26;99841.34;;;18.36;57.59
16777;BME280;8505;49.456;8.164;2023-05-20T08:53:54;99836.72;;;18.75;56.76
16777;BME280;8505;49.456;8.164;2023-05-20T08:56:22;99831.84;;;18.65;57.51
16777;BME280;8505;49.456;8.164;2023-05-20T08:58:55;99824.75;;;19.62;54.88
16777;BME280;8505;49.456;8.164;2023-05-20T09:01:23;99814.56;;;19.64;54.61
16777;BME280;8505;49.456;8.164;2023-05-20T09:03:51;99809.53;;;19.97;53.33
16777;BME280;8505;49.456;8.164;2023-05-20T09:06:19;99808.47;;;19.87;53.33
16777;BME280;8505;49.456;8.164;2023-05-20T09:08:49;99804.38;;;20.61;51.89
16777;BME280;8505;49.456;8.164;2023-05-20T09:11:18;99801.88;;;20.82;51.64
16777;BME280;8505;49.456;8.164;2023-05-20T09:13:48;99800.28;;;20.35;52.44
16777;BME280;8505;49.456;8.164;2023-05-20T09:16:17;99792.53;;;20.38;52.33
16777;BME280;8505;49.456;8.164;2023-05-20T09:18:45;99789.03;;;20.61;51.55
16777;BME280;8505;49.456;8.164;2023-05-20T09:21:13;99792.16;;;20.11;53.05
16777;BME280;8505;49.456;8.164;2023-05-20T09:23:46;99781.28;;;20.76;51.62
16777;BME280;8505;49.456;8.164;2023-05-20T09:26:16;99786.22;;;20.33;52.59
16777;BME280;8505;49.456;8.164;2023-05-20T09:28:45;99786.47;;;20.54;52.40
16777;BME280;8505;49.456;8.164;2023-05-20T09:31:13;99793.53;;;20.14;53.21
16777;BME280;8505;49.456;8.164;2023-05-20T09:33:41;99797.97;;;20.08;53.91
16777;BME280;8505;49.456;8.164;2023-05-20T09:36:09;99792.66;;;20.67;51.61
16777;BME280;8505;49.456;8.164;2023-05-20T09:38:41;99794.16;;;20.86;51.77
16777;BME280;8505;49.456;8.164;2023-05-20T09:41:10;99791.78;;;20.89;51.31
16777;BME280;8505;49.456;8.164;2023-05-20T09:43:41;99791.88;;;21.06;51.40
16777;BME280;8505;49.456;8.164;2023-05-20T09:46:09;99773.13;;;21.23;50.90
16777;BME280;8505;49.456;8.164;2023-05-20T09:48:37;99776.53;;;21.07;51.17
16777;BME280;8505;49.456;8.164;2023-05-20T09:51:09;99774.50;;;21.25;50.66
16777;BME280;8505;49.456;8.164;2023-05-20T09:53:39;99785.81;;;22.12;48.25
16777;BME280;8505;49.456;8.164;2023-05-20T09:56:08;99783.75;;;21.58;48.90
16777;BME280;8505;49.456;8.164;2023-05-20T09:58:37;99789.75;;;21.48;49.96
16777;BME280;8505;49.456;8.164;2023-05-20T10:01:07;99775.97;;;21.90;48.86
16777;BME280;8505;49.456;8.164;2023-05-20T10:03:35;99770.22;;;21.69;49.95
16777;BME280;8505;49.456;8.164;2023-05-20T10:06:21;99767.94;;;21.95;49.41
16777;BME280;8505;49.456;8.164;2023-05-20T10:09:08;99768.47;;;20.55;52.73
16777;BME280;8505;49.456;8.164;2023-05-20T10:11:47;99771.78;;;20.97;52.16
16777;BME280;8505;49.456;8.164;2023-05-20T10:14:27;99761.75;;;21.77;49.96
16777;BME280;8505;49.456;8.164;2023-05-20T10:17:06;99767.16;;;21.49;51.12
16777;BME280;8505;49.456;8.164;2023-05-20T10:19:37;99761.06;;;21.87;49.89
16777;BME280;8505;49.456;8.164;2023-05-20T10:22:06;99756.84;;;22.25;48.58
16777;BME280;8505;49.456;8.164;2023-05-20T10:24:36;99759.91;;;21.66;50.02
16777;BME280;8505;49.456;8.164;2023-05-20T10:27:07;99744.41;;;21.90;49.79
16777;BME280;8505;49.456;8.164;2023-05-20T10:29:43;99748.81;;;22.46;48.81
16777;BME280;8505;49.456;8.164;2023-05-20T10:32:22;99736.03;;;22.58;48.43
16777;BME280;8505;49.456;8.164;2023-05-20T10:34:50;99746.31;;;21.90;49.13
16777;BME280;8505;49.456;8.164;2023-05-20T10:37:28;99737.97;;;22.25;48.43
16777;BME280;8505;49.456;8.164;2023-05-20T10:40:07;99723.16;;;23.09;47.29
16777;BME280;8505;49.456;8.164;2023-05-20T10:42:35;99734.13;;;22.76;47.47
16777;BME280;8505;49.456;8.164;2023-05-20T10:45:03;99738.00;;;22.85;47.83
16777;BME280;8505;49.456;8.164;2023-05-20T10:47:33;99719.84;;;22.42;48.66
16777;BME280;8505;49.456;8.164;2023-05-20T10:50:02;99726.25;;;21.86;49.40
16777;BME280;8505;49.456;8.164;2023-05-20T10:52:32;99728.22;;;21.73;49.44
16777;BME280;8505;49.456;8.164;2023-05-20T10:55:00;99716.13;;;22.65;47.73
16777;BME280;8505;49.456;8.164;2023-05-20T10:57:29;99716.56;;;22.56;48.07
16777;BME280;8505;49.456;8.164;2023-05-20T10:59:57;99712.28;;;22.22;49.26
16777;BME280;8505;49.456;8.164;2023-05-20T11:02:26;99718.56;;;22.44;47.96
16777;BME280;8505;49.456;8.164;2023-05-20T11:04:56;99708.09;;;23.67;44.78
16777;BME280;8505;49.456;8.164;2023-05-20T11:07:25;99696.34;;;23.51;45.46
16777;BME280;8505;49.456;8.164;2023-05-20T11:09:54;99702.94;;;23.38;45.20
16777;BME280;8505;49.456;8.164;2023-05-20T11:12:23;99696.50;;;23.18;45.15
16777;BME280;8505;49.456;8.164;2023-05-20T11:14:51;99708.22;;;22.19;46.30
16777;BME280;8505;49.456;8.164;2023-05-20T11:17:20;99696.63;;;22.79;45.37
16777;BME280;8505;49.456;8.164;2023-05-20T11:19:48;99696.34;;;23.03;45.36
16777;BME280;8505;49.456;8.164;2023-05-20T11:22:17;99695.66;;;23.12;45.32
16777;BME280;8505;49.456;8.164;2023-05-20T11:24:45;99691.63;;;22.49;45.78
16777;BME280;8505;49.456;8.164;2023-05-20T11:27:13;99686.44;;;22.65;45.56
16777;BME280;8505;49.456;8.164;2023-05-20T11:29:41;99673.66;;;23.30;44.86
16777;BME280;8505;49.456;8.164;2023-05-20T11:32:09;99694.28;;;22.88;45.33
16777;BME280;8505;49.456;8.164;2023-05-20T11:34:38;99686.44;;;22.65;45.22
16777;BME280;8505;49.456;8.164;2023-05-20T11:37:06;99673.16;;;23.60;44.04
16777;BME280;8505;49.456;8.164;2023-05-20T11:39:36;99675.28;;;23.05;45.37
16777;BME280;8505;49.456;8.164;2023-05-20T11:42:04;99686.00;;;22.34;48.15
16777;BME280;8505;49.456;8.164;2023-05-20T11:44:32;99676.53;;;22.53;47.14
16777;BME280;8505;49.456;8.164;2023-05-20T11:47:01;99681.88;;;22.27;47.94
16777;BME280;8505;49.456;8.164;2023-05-20T11:49:29;99671.25;;;22.58;47.41
16777;BME280;8505;49.456;8.164;2023-05-20T11:52:07;99672.75;;;22.11;47.24
16777;BME280;8505;49.456;8.164;2023-05-20T11:54:37;99674.00;;;22.03;48.23
16777;BME280;8505;49.456;8.164;2023-05-20T11:57:05;99678.44;;;22.31;48.42
16777;BME280;8505;49.456;8.164;2023-05-20T11:59:33;99675.03;;;22.19;47.01
16777;BME280;8505;49.456;8.164;2023-05-20T12:02:02;99659.66;;;22.41;45.43
16777;BME280;8505;49.456;8.164;2023-05-20T12:04:30;99662.50;;;22.95;44.29
16777;BME280;8505;49.456;8.164;2023-05-20T12:06:58;99657.28;;;22.45;46.17
16777;BME280;8505;49.456;8.164;2023-05-20T12:09:26;99647.66;;;22.54;46.11
16777;BME280;8505;49.456;8.164;2023-05-20T12:11:55;99653.22;;;22.64;46.01
16777;BME280;8505;49.456;8.164;2023-05-20T12:14:24;99655.28;;;22.79;44.79
16777;BME280;8505;49.456;8.164;2023-05-20T12:16:52;99659.25;;;21.94;46.26
16777;BME280;8505;49.456;8.164;2023-05-20T12:19:20;99648.78;;;22.75;45.26
16777;BME280;8505;49.456;8.164;2023-05-20T12:21:48;99638.59;;;22.82;45.04
16777;BME280;8505;49.456;8.164;2023-05-20T12:24:18;99653.53;;;21.74;46.81
16777;BME280;8505;49.456;8.164;2023-05-20T12:26:46;99646.69;;;22.00;46.58
16777;BME280;8505;49.456;8.164;2023-05-20T12:29:15;99644.00;;;22.00;47.31
16777;BME280;8505;49.456;8.164;2023-05-20T12:31:43;99652.59;;;21.97;46.94
16777;BME280;8505;49.456;8.164;2023-05-20T12:34:11;99642.84;;;22.34;45.67
16777;BME280;8505;49.456;8.164;2023-05-20T12:36:38;99630.00;;;21.86;47.82
16777;BME280;8505;49.456;8.164;2023-05-20T12:39:06;99644.22;;;22.15;47.49
16777;BME280;8505;49.456;8.164;2023-05-20T12:41:34;99646.69;;;21.33;49.33
16777;BME280;8505;49.456;8.164;2023-05-20T12:44:02;99652.25;;;21.76;48.82
16777;BME280;8505;49.456;8.164;2023-05-20T12:46:31;99645.22;;;22.09;48.29
16777;BME280;8505;49.456;8.164;2023-05-20T12:48:59;99648.16;;;21.91;48.42
16777;BME280;8505;49.456;8.164;2023-05-20T12:51:27;99638.31;;;21.18;50.33
16777;BME280;8505;49.456;8.164;2023-05-20T12:53:55;99643.25;;;21.54;49.12
16777;BME280;8505;49.456;8.164;2023-05-20T12:56:23;99648.72;;;21.43;49.64
16777;BME280;8505;49.456;8.164;2023-05-20T12:58:51;99648.31;;;21.67;48.82
16777;BME280;8505;49.456;8.164;2023-05-20T13:01:19;99641.72;;;21.42;49.83
16777;BME280;8505;49.456;8.164;2023-05-20T13:03:48;99647.75;;;21.32;49.64
16777;BME280;8505;49.456;8.164;2023-05-20T13:06:18;99649.88;;;21.63;49.12
16777;BME280;8505;49.456;8.164;2023-05-20T13:08:46;99640.63;;;21.43;49.15
16777;BME280;8505;49.456;8.164;2023-05-20T13:11:14;99648.06;;;21.86;48.18
16777;BME280;8505;49.456;8.164;2023-05-20T13:13:42;99630.63;;;22.27;47.19
16777;BME280;8505;49.456;8.164;2023-05-20T13:16:10;99637.00;;;22.86;46.18
16777;BME280;8505;49.456;8.164;2023-05-20T13:18:38;99632.78;;;23.49;44.70